Time;durP1;ratioP1;P1;durP2;ratioP2;P2;SDS_P1;SDS_P2;PMS_P1;PMS_P2;Temp;Humidity;BMP_temperature;BMP_pressure;BME280_temperature;BME280_humidity;BME280_pressure;Samples;Min_cycle;Max_cycle;Signal;HPM_P1;HPM_P2
2020/12/09 00:00:10;;;;;;;16.83;12.00;;;5.00;99.90;;;;;;4980847;28;20562;-76
2020/12/09 00:02:41;;;;;;;17.63;12.45;;;5.10;99.90;;;;;;5021350;28;20194;-76
2020/12/09 00:05:13;;;;;;;19.77;13.38;;;5.10;99.90;;;;;;5014578;28;20671;-75
2020/12/09 00:07:39;;;;;;;17.73;12.77;;;5.10;99.90;;;;;;5000718;28;20192;-75
2020/12/09 00:10:06;;;;;;;17.98;13.45;;;5.10;99.90;;;;;;5008832;28;20588;-76
2020/12/09 00:12:33;;;;;;;19.52;13.32;;;5.10;99.90;;;;;;5014960;28;20276;-76
2020/12/09 00:15:02;;;;;;;19.40;14.05;;;5.00;99.90;;;;;;5030884;28;20209;-75
2020/12/09 00:17:29;;;;;;;18.08;14.02;;;5.00;99.90;;;;;;5020147;28;20244;-76
2020/12/09 00:19:55;;;;;;;20.75;13.73;;;5.00;99.90;;;;;;5013671;28;20214;-76
2020/12/09 00:22:23;;;;;;;20.42;14.95;;;5.00;99.90;;;;;;5023159;28;20202;-75
2020/12/09 00:24:51;;;;;;;22.48;14.63;;;5.00;99.90;;;;;;5017042;28;20229;-76
2020/12/09 00:27:20;;;;;;;21.85;14.85;;;5.00;99.90;;;;;;5002441;28;20185;-76
2020/12/09 00:29:48;;;;;;;24.55;16.20;;;5.00;99.90;;;;;;5024083;28;20667;-75
2020/12/09 00:32:14;;;;;;;23.08;14.88;;;5.10;99.90;;;;;;5002459;28;20185;-76
2020/12/09 00:34:40;;;;;;;19.07;13.90;;;5.20;99.90;;;;;;5025287;28;20558;-75
2020/12/09 00:37:09;;;;;;;23.98;15.48;;;5.10;99.90;;;;;;5022049;28;20935;-76
2020/12/09 00:39:35;;;;;;;22.58;15.57;;;5.10;99.90;;;;;;5022205;28;20240;-75
2020/12/09 00:42:01;;;;;;;25.50;17.10;;;5.10;99.90;;;;;;5013610;28;20196;-76
2020/12/09 00:44:29;;;;;;;24.40;17.30;;;5.10;99.90;;;;;;5012961;28;20677;-75
2020/12/09 00:46:55;;;;;;;22.00;14.45;;;5.10;99.90;;;;;;4996620;28;20662;-76
2020/12/09 00:49:21;;;;;;;22.40;15.70;;;5.20;99.90;;;;;;5020947;28;20201;-76
2020/12/09 00:51:47;;;;;;;23.90;15.40;;;5.10;99.90;;;;;;5010708;28;20273;-75
2020/12/09 00:54:14;;;;;;;21.00;14.38;;;5.20;99.90;;;;;;5014204;28;20465;-76
2020/12/09 00:56:44;;;;;;;25.33;17.33;;;5.20;99.90;;;;;;5027681;28;20191;-75
2020/12/09 00:59:13;;;;;;;26.67;16.42;;;5.10;99.90;;;;;;5018501;28;20694;-75
2020/12/09 01:01:40;;;;;;;25.10;15.88;;;5.20;99.90;;;;;;4995718;28;20186;-75
2020/12/09 01:04:12;;;;;;;20.80;15.85;;;5.30;99.90;;;;;;5010453;28;20281;-75
2020/12/09 01:06:38;;;;;;;19.33;15.25;;;5.20;99.90;;;;;;5050346;23;20240;-92
2020/12/09 01:09:07;;;;;;;20.77;14.93;;;5.20;99.90;;;;;;5037946;28;20177;-91
2020/12/09 01:11:35;;;;;;;21.73;14.80;;;5.20;99.90;;;;;;5037331;28;20181;-91
2020/12/09 01:14:01;;;;;;;25.30;16.65;;;5.30;99.90;;;;;;5037824;28;20275;-91
2020/12/09 01:16:30;;;;;;;24.70;16.63;;;5.20;99.90;;;;;;5053382;28;20563;-91
2020/12/09 01:18:58;;;;;;;25.23;15.88;;;5.20;99.90;;;;;;5037260;28;20192;-91
2020/12/09 01:21:29;;;;;;;24.93;17.30;;;5.20;99.90;;;;;;5036368;28;20299;-91
2020/12/09 01:23:56;;;;;;;25.38;17.40;;;5.20;99.90;;;;;;5037615;28;20466;-91
2020/12/09 01:26:22;;;;;;;24.38;17.52;;;5.20;99.90;;;;;;5037211;28;20215;-91
2020/12/09 01:28:48;;;;;;;31.55;20.40;;;5.30;99.90;;;;;;5036885;28;20236;-91
2020/12/09 01:31:20;;;;;;;32.13;20.97;;;5.20;99.90;;;;;;5020216;28;20649;-91
2020/12/09 01:33:51;;;;;;;27.75;18.55;;;5.20;99.90;;;;;;5037168;28;20423;-91
2020/12/09 01:36:24;;;;;;;26.30;17.85;;;4.90;99.90;;;;;;5037142;28;20217;-92
2020/12/09 01:38:51;;;;;;;27.40;18.90;;;5.20;99.90;;;;;;5037422;28;20185;-91
2020/12/09 01:41:25;;;;;;;34.03;20.90;;;5.30;99.90;;;;;;5037014;28;20212;-92
2020/12/09 01:43:54;;;;;;;31.92;20.23;;;5.20;99.90;;;;;;5036309;28;20169;-91
2020/12/09 01:46:29;;;;;;;34.33;21.25;;;5.30;99.90;;;;;;5052815;28;20173;-91
2020/12/09 01:49:02;;;;;;;32.75;20.35;;;5.30;99.90;;;;;;5036350;28;20229;-91
2020/12/09 01:51:29;;;;;;;36.47;22.52;;;5.20;99.90;;;;;;5036121;28;20177;-91
2020/12/09 01:53:57;;;;;;;33.17;22.90;;;5.20;99.90;;;;;;5037125;28;20185;-91
2020/12/09 01:56:23;;;;;;;34.80;23.40;;;5.20;99.90;;;;;;5036794;28;20204;-91
2020/12/09 01:58:51;;;;;;;29.85;20.77;;;5.10;99.90;;;;;;5019650;28;20181;-91
2020/12/09 02:01:18;;;;;;;31.85;22.50;;;5.10;99.90;;;;;;5033731;28;20208;-91
2020/12/09 02:03:47;;;;;;;34.95;22.85;;;5.10;99.90;;;;;;5034944;28;20284;-91
2020/12/09 02:06:21;;;;;;;28.63;19.75;;;5.10;99.90;;;;;;5034703;28;20229;-91
2020/12/09 02:08:47;;;;;;;32.60;20.17;;;5.10;99.90;;;;;;5034589;28;20272;-91
2020/12/09 02:11:13;;;;;;;30.95;19.13;;;5.10;99.90;;;;;;5035050;28;20193;-91
2020/12/09 02:13:44;;;;;;;34.70;20.45;;;5.30;99.90;;;;;;5035347;28;20610;-91
2020/12/09 02:16:17;;;;;;;35.95;21.52;;;5.10;99.90;;;;;;5035332;28;20288;-91
2020/12/09 02:18:44;;;;;;;31.35;21.33;;;5.10;99.90;;;;;;5034823;28;20196;-92
2020/12/09 02:21:10;;;;;;;31.13;21.35;;;5.10;99.90;;;;;;5042516;28;20315;-91
2020/12/09 02:23:36;;;;;;;34.40;21.83;;;5.20;99.90;;;;;;5034522;28;20516;-91
2020/12/09 02:26:02;;;;;;;33.23;21.70;;;5.20;99.90;;;;;;5034297;28;20185;-91
2020/12/09 02:28:33;;;;;;;34.83;21.70;;;5.20;99.90;;;;;;5030051;28;20447;-91
2020/12/09 02:30:59;;;;;;;37.75;23.98;;;5.20;99.90;;;;;;5047606;28;20186;-91
2020/12/09 02:33:25;;;;;;;33.50;22.33;;;5.30;99.90;;;;;;5034466;28;20259;-91
2020/12/09 02:35:55;;;;;;;31.13;21.23;;;5.10;99.90;;;;;;5033603;28;20438;-90
2020/12/09 02:38:21;;;;;;;34.60;22.27;;;5.10;99.90;;;;;;5026816;28;20216;-91
2020/12/09 02:40:47;;;;;;;33.20;23.05;;;5.00;99.90;;;;;;5034119;28;20247;-91
2020/12/09 02:43:13;;;;;;;34.20;22.63;;;5.20;99.90;;;;;;5028249;28;20227;-92
2020/12/09 02:45:39;;;;;;;31.60;21.10;;;5.00;99.90;;;;;;5018190;28;20439;-91
2020/12/09 02:48:08;;;;;;;29.73;19.73;;;4.90;99.90;;;;;;5017636;28;20446;-92
2020/12/09 02:50:34;;;;;;;30.90;22.00;;;4.90;99.90;;;;;;5035208;28;20283;-91
2020/12/09 02:53:00;;;;;;;33.63;21.83;;;4.90;99.90;;;;;;5025307;28;20428;-91
2020/12/09 02:55:26;;;;;;;34.67;21.80;;;4.80;99.90;;;;;;5008983;28;20502;-92
2020/12/09 02:57:54;;;;;;;37.70;23.15;;;4.90;99.90;;;;;;5034586;28;20443;-91
2020/12/09 03:00:22;;;;;;;39.05;22.45;;;4.90;99.90;;;;;;5048888;28;20217;-90
2020/12/09 03:02:48;;;;;;;34.17;21.93;;;4.80;99.90;;;;;;5039218;28;20192;-91
2020/12/09 03:05:16;;;;;;;34.77;22.17;;;4.80;99.90;;;;;;5040719;28;20801;-92
2020/12/09 03:07:42;;;;;;;35.45;22.92;;;4.80;99.90;;;;;;5029617;28;20577;-91
2020/12/09 03:10:10;;;;;;;34.63;22.33;;;4.80;99.90;;;;;;5047470;28;20220;-90
2020/12/09 03:12:36;;;;;;;33.57;22.23;;;4.80;99.90;;;;;;5040564;28;20286;-92
2020/12/09 03:15:02;;;;;;;36.57;22.37;;;4.80;99.90;;;;;;5040756;28;20461;-91
2020/12/09 03:17:29;;;;;;;32.63;21.10;;;4.80;99.90;;;;;;5037189;28;20507;-91
2020/12/09 03:20:03;;;;;;;35.17;21.63;;;4.90;99.90;;;;;;5040038;28;20792;-91
2020/12/09 03:22:29;;;;;;;32.28;20.08;;;4.90;99.90;;;;;;5023351;28;20504;-91
2020/12/09 03:24:55;;;;;;;31.60;20.40;;;4.90;99.90;;;;;;5039917;28;20284;-91
2020/12/09 03:27:26;;;;;;;37.63;22.00;;;4.80;99.90;;;;;;5040538;28;20514;-91
2020/12/09 03:29:58;;;;;;;34.92;21.48;;;4.70;99.90;;;;;;5040802;28;20188;-91
2020/12/09 03:32:26;;;;;;;31.90;21.30;;;4.70;99.90;;;;;;5031840;28;20193;-91
2020/12/09 03:34:52;;;;;;;34.55;21.63;;;4.70;99.90;;;;;;5039479;28;20200;-92
2020/12/09 03:37:17;;;;;;;34.90;23.37;;;4.70;99.90;;;;;;5037051;28;20192;-92
2020/12/09 03:39:46;;;;;;;31.10;20.37;;;4.90;99.90;;;;;;5039684;28;20859;-91
2020/12/09 03:42:12;;;;;;;35.72;21.70;;;4.70;99.90;;;;;;5033735;28;20951;-90
2020/12/09 03:44:38;;;;;;;38.23;23.70;;;4.70;99.90;;;;;;5038203;28;20189;-91
2020/12/09 03:47:06;;;;;;;35.60;22.27;;;4.50;99.90;;;;;;5024024;28;20455;-91
2020/12/09 03:49:32;;;;;;;42.40;24.97;;;4.20;99.90;;;;;;5040755;28;20288;-91
2020/12/09 03:52:00;;;;;;;39.10;25.55;;;4.60;99.90;;;;;;5040465;28;20439;-91
2020/12/09 03:54:26;;;;;;;39.65;24.15;;;4.20;99.90;;;;;;5056711;28;20208;-91
2020/12/09 03:56:56;;;;;;;41.92;24.52;;;4.60;99.90;;;;;;5040073;28;20189;-90
2020/12/09 03:59:22;;;;;;;39.72;25.70;;;4.50;99.90;;;;;;5056102;28;20208;-91
2020/12/09 04:01:48;;;;;;;37.70;25.07;;;4.50;99.90;;;;;;5040394;28;21306;-92
2020/12/09 04:04:14;;;;;;;40.33;24.20;;;4.60;99.90;;;;;;5041942;28;20433;-91
2020/12/09 04:06:40;;;;;;;41.37;25.17;;;4.50;99.90;;;;;;5041568;28;20229;-91
2020/12/09 04:09:05;;;;;;;35.93;24.00;;;4.60;99.90;;;;;;5024787;28;20428;-91
2020/12/09 04:11:36;;;;;;;35.78;24.05;;;4.60;99.90;;;;;;5042025;28;20895;-91
2020/12/09 04:14:04;;;;;;;41.10;24.70;;;4.50;99.90;;;;;;5038800;28;20534;-91
2020/12/09 04:16:30;;;;;;;42.30;25.58;;;4.60;99.90;;;;;;5054501;28;20185;-91
2020/12/09 04:18:56;;;;;;;41.90;25.67;;;4.50;99.90;;;;;;5038830;28;20200;-91
2020/12/09 04:21:24;;;;;;;44.08;25.20;;;4.20;99.90;;;;;;5038831;28;20952;-91
2020/12/09 04:23:50;;;;;;;43.83;26.37;;;4.60;99.90;;;;;;5037819;28;20188;-92
2020/12/09 04:26:20;;;;;;;43.70;26.30;;;4.60;99.90;;;;;;5038461;28;20505;-91
2020/12/09 04:28:46;;;;;;;40.78;23.70;;;4.60;99.90;;;;;;5054611;28;20455;-91
2020/12/09 04:31:17;;;;;;;40.80;24.77;;;4.50;99.90;;;;;;5037754;28;20243;-91
2020/12/09 04:34:09;;;;;;;46.42;25.92;;;4.40;99.90;;;;;;5038379;28;20184;-91
2020/12/09 04:36:38;;;;;;;40.55;24.58;;;4.40;99.90;;;;;;5036249;28;20197;-89
2020/12/09 04:39:04;;;;;;;45.95;26.52;;;4.50;99.90;;;;;;5038061;28;20267;-90
2020/12/09 04:41:30;;;;;;;49.97;26.03;;;4.50;99.90;;;;;;5038096;28;20225;-91
2020/12/09 04:43:56;;;;;;;47.53;27.23;;;4.50;99.90;;;;;;5037524;28;20415;-91
2020/12/09 04:46:22;;;;;;;43.23;26.20;;;4.50;99.90;;;;;;5054160;28;20193;-91
2020/12/09 04:48:59;;;;;;;46.80;26.77;;;4.40;99.90;;;;;;5038266;28;20944;-91
2020/12/09 04:52:20;;;;;;;41.15;24.48;;;4.40;99.90;;;;;;5037852;28;20169;-90
2020/12/09 04:54:48;;;;;;;41.75;24.85;;;4.40;99.90;;;;;;5000190;28;20248;-91
2020/12/09 04:57:32;;;;;;;40.72;25.63;;;4.40;99.90;;;;;;5046254;28;20193;-91
2020/12/09 05:00:00;;;;;;;45.10;26.17;;;4.40;99.90;;;;;;5053817;28;20209;-90
2020/12/09 05:02:44;;;;;;;42.42;25.17;;;4.40;99.90;;;;;;5034425;28;20207;-91
2020/12/09 05:05:15;;;;;;;43.03;26.73;;;4.40;99.90;;;;;;5031504;28;20320;-90
2020/12/09 05:07:49;;;;;;;45.75;27.23;;;4.50;99.90;;;;;;5017329;28;20208;-91
2020/12/09 05:10:20;;;;;;;43.30;26.85;;;4.50;99.90;;;;;;5036685;28;20200;-91
2020/12/09 05:12:52;;;;;;;40.30;25.30;;;4.30;99.90;;;;;;5030279;28;20197;-91
2020/12/09 05:15:25;;;;;;;50.42;28.05;;;4.30;99.90;;;;;;5010597;28;20215;-91
2020/12/09 05:18:01;;;;;;;44.88;27.75;;;4.40;99.90;;;;;;5051103;28;20202;-91
2020/12/09 05:20:35;;;;;;;46.38;29.08;;;4.30;99.90;;;;;;5043419;28;20220;-91
2020/12/09 05:23:05;;;;;;;43.22;25.92;;;4.20;99.90;;;;;;5021976;28;20217;-91
2020/12/09 05:25:35;;;;;;;47.25;28.80;;;4.40;99.90;;;;;;5016561;28;20215;-91
2020/12/09 05:28:05;;;;;;;41.83;26.30;;;4.30;99.90;;;;;;5029088;28;20213;-91
2020/12/09 05:30:47;;;;;;;47.72;29.65;;;4.00;99.90;;;;;;5046777;28;20198;-91
2020/12/09 05:33:18;;;;;;;48.28;28.23;;;4.20;99.90;;;;;;5016214;28;20532;-91
2020/12/09 05:36:01;;;;;;;44.28;27.30;;;4.30;99.90;;;;;;5051587;28;20284;-91
2020/12/09 05:38:27;;;;;;;49.13;27.67;;;4.20;99.90;;;;;;5029369;28;20201;-90
2020/12/09 05:40:58;;;;;;;47.80;28.60;;;4.20;99.90;;;;;;5046744;28;20276;-91
2020/12/09 05:43:25;;;;;;;50.38;27.92;;;4.20;99.90;;;;;;5037410;28;20194;-91
2020/12/09 05:45:51;;;;;;;46.63;27.48;;;4.40;99.90;;;;;;5051379;28;20268;-90
2020/12/09 05:48:19;;;;;;;45.80;27.48;;;4.20;99.90;;;;;;5050846;28;20189;-90
2020/12/09 05:50:51;;;;;;;50.20;28.67;;;4.10;99.90;;;;;;5026806;28;20200;-91
2020/12/09 05:53:23;;;;;;;48.80;27.90;;;3.80;99.90;;;;;;5035040;28;20216;-92
2020/12/09 05:55:54;;;;;;;46.17;28.30;;;4.10;99.90;;;;;;5035141;28;20206;-91
2020/12/09 05:58:22;;;;;;;51.25;29.90;;;4.10;99.90;;;;;;5051002;28;20220;-91
2020/12/09 06:01:04;;;;;;;49.63;28.95;;;4.30;99.90;;;;;;5018128;28;20224;-91
2020/12/09 06:03:34;;;;;;;51.13;30.00;;;4.10;99.90;;;;;;5030028;28;20982;-92
2020/12/09 06:06:16;;;;;;;47.47;30.08;;;4.00;99.90;;;;;;5026291;28;20320;-91
2020/12/09 06:08:51;;;;;;;57.10;33.03;;;4.00;99.90;;;;;;5024136;28;20228;-91
2020/12/09 06:11:25;;;;;;;54.50;31.73;;;4.00;99.90;;;;;;5026910;28;20199;-92
2020/12/09 06:13:52;;;;;;;51.92;31.33;;;3.90;99.90;;;;;;5050240;28;20630;-91
2020/12/09 06:16:19;;;;;;;56.10;33.13;;;3.70;99.90;;;;;;5036272;28;20197;-92
2020/12/09 06:18:48;;;;;;;51.80;30.70;;;3.90;99.90;;;;;;5032060;28;20275;-91
2020/12/09 06:21:14;;;;;;;52.13;30.55;;;4.10;99.90;;;;;;5038698;28;20209;-91
2020/12/09 06:23:42;;;;;;;60.60;33.78;;;4.00;99.90;;;;;;5034696;28;20181;-92
2020/12/09 06:26:20;;;;;;;60.65;33.00;;;3.50;99.90;;;;;;5029223;28;20185;-92
2020/12/09 06:28:49;;;;;;;59.53;33.65;;;3.80;99.90;;;;;;5028215;28;20219;-92
2020/12/09 06:31:17;;;;;;;71.80;35.85;;;3.80;99.90;;;;;;5038630;28;20189;-92
2020/12/09 06:33:46;;;;;;;67.15;35.25;;;3.80;99.90;;;;;;5017302;28;20201;-91
2020/12/09 06:36:15;;;;;;;65.28;35.35;;;3.70;99.90;;;;;;5027008;28;21440;-92
2020/12/09 06:39:04;;;;;;;71.43;36.95;;;3.90;99.90;;;;;;5030575;28;20189;-92
2020/12/09 06:41:41;;;;;;;60.72;33.20;;;3.70;99.90;;;;;;5032279;28;20240;-93
2020/12/09 06:44:11;;;;;;;59.42;33.53;;;3.60;99.90;;;;;;5029835;28;20184;-92
2020/12/09 06:46:49;;;;;;;60.88;34.47;;;3.20;99.90;;;;;;5033472;28;20627;-91
2020/12/09 06:49:30;;;;;;;66.60;34.88;;;3.40;99.90;;;;;;5034476;28;20196;-92
2020/12/09 06:52:00;;;;;;;66.28;34.10;;;3.50;99.90;;;;;;5027020;28;20185;-92
2020/12/09 06:54:39;;;;;;;64.63;34.67;;;3.60;99.90;;;;;;5041802;28;20295;-92
2020/12/09 06:57:20;;;;;;;60.72;33.03;;;3.50;99.90;;;;;;5018588;28;20189;-89
2020/12/09 07:00:21;;;;;;;64.35;32.28;;;3.60;99.90;;;;;;5033079;28;20221;-85
2020/12/09 07:02:50;;;;;;;57.70;32.92;;;3.40;99.90;;;;;;5016180;28;20189;-88
2020/12/09 07:05:30;;;;;;;66.85;33.63;;;3.40;99.90;;;;;;5032035;28;20201;-84
2020/12/09 07:08:02;;;;;;;71.93;38.03;;;3.50;99.90;;;;;;5032849;28;20193;-83
2020/12/09 07:10:30;;;;;;;62.78;33.45;;;3.50;99.90;;;;;;5048007;28;20584;-83
2020/12/09 07:13:01;;;;;;;61.72;36.13;;;3.40;99.90;;;;;;5032793;28;20216;-83
2020/12/09 07:15:32;;;;;;;62.65;33.95;;;2.90;99.90;;;;;;5034919;28;20201;-90
2020/12/09 07:17:58;;;;;;;64.95;33.85;;;3.20;99.90;;;;;;5034031;28;20192;-91
2020/12/09 07:20:24;;;;;;;67.53;32.83;;;3.30;99.90;;;;;;5030195;28;20554;-89
2020/12/09 07:22:52;;;;;;;61.80;33.10;;;3.00;99.90;;;;;;5029753;28;20432;-89
2020/12/09 07:25:18;;;;;;;63.70;32.15;;;3.30;99.90;;;;;;5017773;28;20254;-89
2020/12/09 07:27:47;;;;;;;64.68;34.83;;;3.30;99.90;;;;;;5050617;28;20274;-89
2020/12/09 07:30:18;;;;;;;59.00;32.40;;;2.80;99.90;;;;;;5034841;28;20254;-90
2020/12/09 07:32:51;;;;;;;60.45;33.58;;;3.50;99.90;;;;;;5009902;28;20630;-89
2020/12/09 07:35:18;;;;;;;62.00;31.63;;;3.10;99.90;;;;;;5042282;28;20200;-89
2020/12/09 07:37:50;;;;;;;67.07;35.03;;;3.20;99.90;;;;;;5034859;28;20223;-90
2020/12/09 07:40:28;;;;;;;64.82;33.65;;;3.20;99.90;;;;;;5034124;28;20216;-93
2020/12/09 07:43:12;;;;;;;62.50;34.20;;;3.20;99.90;;;;;;5017810;28;20197;-91
2020/12/09 07:45:43;;;;;;;61.67;33.75;;;3.10;99.90;;;;;;5033727;28;20189;-87
2020/12/09 07:48:18;;;;;;;61.92;35.42;;;3.30;99.90;;;;;;5033509;28;20190;-90
2020/12/09 07:50:52;;;;;;;55.80;34.25;;;3.30;99.90;;;;;;5025771;28;20209;-90
2020/12/09 07:53:18;;;;;;;61.22;31.63;;;3.20;99.90;;;;;;5026908;28;20621;-86
2020/12/09 07:55:44;;;;;;;66.57;34.05;;;3.20;99.90;;;;;;5054176;28;20642;-88
2020/12/09 07:58:14;;;;;;;68.22;34.55;;;3.10;99.90;;;;;;5036782;28;20193;-90
2020/12/09 08:00:45;;;;;;;61.30;34.78;;;3.20;99.90;;;;;;5037502;28;20232;-89
2020/12/09 08:03:22;;;;;;;62.95;36.13;;;3.00;99.90;;;;;;5038695;28;20201;-87
2020/12/09 08:05:52;;;;;;;64.10;34.17;;;3.00;99.90;;;;;;5052685;28;20289;-86
2020/12/09 08:08:20;;;;;;;60.00;33.00;;;3.00;99.90;;;;;;5036841;28;20208;-87
2020/12/09 08:10:48;;;;;;;60.67;34.30;;;3.10;99.90;;;;;;5045018;28;20205;-87
2020/12/09 08:13:25;;;;;;;57.15;32.50;;;3.00;99.90;;;;;;5027550;28;20193;-86
2020/12/09 08:16:08;;;;;;;64.00;36.30;;;2.90;99.90;;;;;;5035237;28;20204;-86
2020/12/09 08:18:37;;;;;;;62.72;34.78;;;2.90;99.90;;;;;;5037774;28;20216;-90
2020/12/09 08:21:08;;;;;;;59.55;32.95;;;3.00;99.90;;;;;;5043300;28;20213;-93
2020/12/09 08:23:50;;;;;;;66.18;33.33;;;3.00;99.90;;;;;;5021004;28;20189;-92
2020/12/09 08:26:34;;;;;;;62.08;34.25;;;3.10;99.90;;;;;;5029600;28;20288;-89
2020/12/09 08:29:00;;;;;;;59.45;32.28;;;3.20;99.90;;;;;;5029664;28;20190;-90
2020/12/09 08:31:29;;;;;;;63.95;35.90;;;3.10;99.90;;;;;;5037579;28;20208;-90
2020/12/09 08:33:55;;;;;;;61.08;34.78;;;3.20;99.90;;;;;;5037224;28;20189;-88
2020/12/09 08:36:22;;;;;;;63.05;36.03;;;3.00;99.90;;;;;;5053139;28;20201;-91
2020/12/09 08:38:59;;;;;;;60.40;33.25;;;3.00;99.90;;;;;;5038008;28;20193;-90
2020/12/09 08:41:28;;;;;;;65.45;35.45;;;2.80;99.90;;;;;;5025412;28;20213;-90
2020/12/09 08:43:59;;;;;;;70.22;36.55;;;2.90;99.90;;;;;;5020319;28;20283;-92
2020/12/09 08:46:29;;;;;;;62.42;35.45;;;2.90;99.90;;;;;;5037368;28;20189;-92
2020/12/09 08:48:56;;;;;;;60.17;34.22;;;3.20;99.90;;;;;;5037231;28;20207;-92
2020/12/09 08:51:27;;;;;;;63.90;33.55;;;3.00;99.90;;;;;;5037036;28;20189;-95
2020/12/09 08:53:57;;;;;;;58.70;32.65;;;2.90;99.90;;;;;;5035313;28;20261;-86
2020/12/09 08:56:28;;;;;;;58.65;32.95;;;2.90;99.90;;;;;;5018112;28;20532;-85
2020/12/09 08:58:57;;;;;;;58.83;32.85;;;3.10;99.90;;;;;;5034483;28;20350;-85
2020/12/09 09:01:23;;;;;;;62.08;37.47;;;3.10;99.90;;;;;;5048429;28;20783;-88
2020/12/09 09:04:04;;;;;;;61.88;35.17;;;3.30;99.90;;;;;;5025063;28;20259;-86
2020/12/09 09:06:30;;;;;;;59.90;36.28;;;3.20;99.90;;;;;;5028507;28;20299;-90
2020/12/09 09:08:57;;;;;;;66.68;37.92;;;3.20;99.90;;;;;;5020234;28;20272;-92
2020/12/09 09:11:24;;;;;;;60.83;35.65;;;3.30;99.90;;;;;;5036446;28;20193;-89
2020/12/09 09:13:52;;;;;;;61.65;34.15;;;3.30;99.90;;;;;;5051728;28;20544;-86
2020/12/09 09:16:21;;;;;;;54.97;32.85;;;3.50;99.90;;;;;;5035435;28;20638;-87
2020/12/09 09:18:52;;;;;;;61.63;33.25;;;3.70;99.90;;;;;;5018241;28;20293;-86
2020/12/09 09:21:19;;;;;;;56.80;32.25;;;3.60;99.90;;;;;;5051326;28;20546;-85
2020/12/09 09:23:45;;;;;;;52.03;30.13;;;3.70;99.90;;;;;;5027035;28;20197;-91
2020/12/09 09:26:15;;;;;;;52.83;32.20;;;3.70;99.90;;;;;;5030289;28;20189;-91
2020/12/09 09:28:45;;;;;;;53.88;32.67;;;3.80;99.90;;;;;;5036458;28;20220;-91
2020/12/09 09:31:14;;;;;;;57.03;32.33;;;3.70;99.90;;;;;;5036766;28;20208;-89
2020/12/09 09:33:45;;;;;;;57.35;32.20;;;3.70;99.90;;;;;;5035432;28;20507;-88
2020/12/09 09:36:11;;;;;;;54.03;31.88;;;3.90;99.90;;;;;;5027506;28;20638;-85
2020/12/09 09:38:41;;;;;;;52.65;30.73;;;3.70;99.90;;;;;;5025796;28;20204;-89
2020/12/09 09:41:10;;;;;;;51.42;32.15;;;3.70;99.90;;;;;;5022577;28;20271;-89
2020/12/09 09:43:36;;;;;;;48.55;30.70;;;3.80;99.90;;;;;;5036159;28;20189;-89
2020/12/09 09:46:04;;;;;;;47.72;30.38;;;3.70;99.90;;;;;;5011820;28;20197;-90
2020/12/09 09:48:32;;;;;;;56.10;31.05;;;3.70;99.90;;;;;;5035727;28;20203;-94
2020/12/09 09:51:01;;;;;;;52.28;30.52;;;3.70;99.90;;;;;;5027375;28;20291;-92
2020/12/09 09:53:29;;;;;;;53.95;31.30;;;3.70;99.90;;;;;;5048138;28;20200;-94
2020/12/09 09:55:55;;;;;;;53.72;32.38;;;3.80;99.90;;;;;;5041310;28;20197;-93
2020/12/09 09:58:21;;;;;;;48.23;29.97;;;3.30;99.90;;;;;;5027745;28;20201;-87
2020/12/09 10:00:50;;;;;;;53.38;30.67;;;3.90;99.90;;;;;;5035350;28;20811;-93
2020/12/09 10:03:16;;;;;;;47.55;29.63;;;3.80;99.90;;;;;;5035234;28;20268;-88
2020/12/09 10:05:42;;;;;;;56.95;32.15;;;3.90;99.90;;;;;;5042928;28;20701;-92
2020/12/09 10:08:10;;;;;;;48.63;31.27;;;3.90;99.90;;;;;;5051857;28;20214;-89
2020/12/09 10:10:38;;;;;;;52.22;30.42;;;4.00;99.90;;;;;;5003509;28;20177;-92
2020/12/09 10:13:07;;;;;;;49.00;29.92;;;4.20;99.90;;;;;;5034888;28;20662;-91
2020/12/09 10:15:33;;;;;;;45.67;28.10;;;4.00;99.90;;;;;;5036062;28;20272;-89
2020/12/09 10:18:04;;;;;;;48.90;28.00;;;4.00;99.90;;;;;;5036020;28;20286;-87
2020/12/09 10:20:32;;;;;;;48.50;30.02;;;4.00;99.90;;;;;;5035832;28;20212;-90
2020/12/09 10:22:58;;;;;;;43.97;29.08;;;4.10;99.90;;;;;;5010928;28;20573;-94
2020/12/09 10:25:26;;;;;;;43.70;28.80;;;3.90;99.90;;;;;;5025472;28;20201;-88
2020/12/09 10:27:52;;;;;;;50.45;30.50;;;4.00;99.90;;;;;;5020107;28;20514;-90
2020/12/09 10:30:18;;;;;;;49.28;29.23;;;3.80;99.90;;;;;;5035643;28;20697;-93
2020/12/09 10:32:46;;;;;;;52.85;30.42;;;3.90;99.90;;;;;;5037242;28;20232;-96
2020/12/09 10:35:13;;;;;;;48.35;29.08;;;3.80;99.90;;;;;;5010182;28;20721;-92
2020/12/09 10:37:41;;;;;;;50.20;30.48;;;3.80;99.90;;;;;;5026885;28;20209;-89
2020/12/09 10:40:09;;;;;;;45.85;29.08;;;3.80;99.90;;;;;;5035717;28;20658;-93
2020/12/09 10:42:35;;;;;;;47.45;29.15;;;3.90;99.90;;;;;;5027399;28;20181;-89
2020/12/09 10:45:01;;;;;;;48.75;30.35;;;3.90;99.90;;;;;;5042691;28;20243;-90
2020/12/09 10:47:30;;;;;;;46.90;29.17;;;4.00;99.90;;;;;;5035435;28;20287;-88
2020/12/09 10:49:56;;;;;;;49.80;30.35;;;4.10;99.90;;;;;;5034761;28;20235;-89
2020/12/09 10:52:22;;;;;;;46.05;29.80;;;4.10;99.90;;;;;;5034665;28;20192;-89
2020/12/09 10:54:48;;;;;;;43.80;28.97;;;4.00;99.90;;;;;;5010281;28;20522;-85
2020/12/09 10:57:16;;;;;;;45.27;27.40;;;3.90;99.90;;;;;;5028034;28;20443;-92
2020/12/09 10:59:45;;;;;;;42.25;27.83;;;4.00;99.90;;;;;;5031657;28;20436;-91
2020/12/09 11:02:13;;;;;;;44.80;26.85;;;4.00;99.90;;;;;;4995726;28;20232;-92
2020/12/09 11:04:42;;;;;;;40.45;26.90;;;4.00;99.90;;;;;;5033304;28;20204;-88
2020/12/09 11:07:09;;;;;;;37.33;26.02;;;4.10;99.90;;;;;;5024639;28;20714;-89
2020/12/09 11:09:40;;;;;;;45.92;28.27;;;4.10;99.90;;;;;;5035051;28;20197;-92
2020/12/09 11:12:08;;;;;;;39.85;25.27;;;4.00;99.90;;;;;;5050738;28;20212;-93
2020/12/09 11:14:36;;;;;;;42.53;27.00;;;4.10;99.90;;;;;;5027423;28;20215;-92
2020/12/09 11:17:05;;;;;;;42.67;26.60;;;4.40;99.90;;;;;;5013567;28;20208;-92
2020/12/09 11:19:32;;;;;;;41.33;26.67;;;4.20;99.90;;;;;;5050927;28;20236;-92
2020/12/09 11:21:58;;;;;;;40.63;27.10;;;4.20;99.90;;;;;;5034681;28;20186;-91
2020/12/09 11:24:27;;;;;;;41.53;26.52;;;4.40;99.90;;;;;;5038794;28;20208;-91
2020/12/09 11:26:53;;;;;;;45.50;27.07;;;4.30;99.90;;;;;;5037893;28;20185;-93
2020/12/09 11:29:19;;;;;;;45.72;29.20;;;4.30;99.90;;;;;;5032785;28;20455;-92
2020/12/09 11:31:45;;;;;;;44.45;26.60;;;4.40;99.90;;;;;;5038768;28;20201;-92
2020/12/09 11:34:11;;;;;;;49.40;29.50;;;4.50;99.90;;;;;;5019430;28;20655;-93
2020/12/09 11:36:39;;;;;;;39.10;27.35;;;4.40;99.90;;;;;;5033571;28;20962;-92
2020/12/09 11:39:05;;;;;;;41.30;27.07;;;4.70;99.90;;;;;;5027089;28;20197;-92
2020/12/09 11:41:34;;;;;;;38.83;26.30;;;4.70;99.90;;;;;;5037862;28;20544;-93
2020/12/09 11:44:02;;;;;;;40.30;26.60;;;4.70;99.90;;;;;;5038559;28;20427;-94
2020/12/09 11:46:30;;;;;;;45.75;27.73;;;4.80;99.90;;;;;;5037239;28;20228;-93
2020/12/09 11:48:59;;;;;;;40.00;26.83;;;4.70;99.90;;;;;;5030470;28;20630;-93
2020/12/09 11:51:27;;;;;;;41.95;27.92;;;4.70;99.90;;;;;;5038354;28;20439;-94
2020/12/09 11:53:53;;;;;;;43.72;27.23;;;4.70;99.90;;;;;;5037929;28;20196;-94
2020/12/09 11:56:28;;;;;;;39.30;25.50;;;4.80;99.90;;;;;;5021823;28;20191;-93
2020/12/09 11:58:59;;;;;;;41.25;27.33;;;4.80;99.90;;;;;;5037815;28;20200;-93
2020/12/09 12:01:29;;;;;;;41.40;27.85;;;4.90;99.90;;;;;;5038308;28;20221;-86
2020/12/09 12:03:57;;;;;;;41.83;26.30;;;5.00;99.90;;;;;;5020835;28;20187;-89
2020/12/09 12:06:27;;;;;;;37.75;25.75;;;5.00;99.90;;;;;;5054200;28;20320;-90
2020/12/09 12:08:56;;;;;;;43.78;26.05;;;4.90;99.90;;;;;;5021925;28;20552;-89
2020/12/09 12:11:26;;;;;;;37.40;25.48;;;4.90;99.90;;;;;;5029477;28;20209;-92
2020/12/09 12:13:57;;;;;;;38.33;25.55;;;5.00;99.90;;;;;;5019275;28;20186;-89
2020/12/09 12:16:30;;;;;;;40.45;25.77;;;5.10;99.90;;;;;;5027791;28;20235;-88
2020/12/09 12:18:59;;;;;;;47.92;29.65;;;5.00;99.90;;;;;;5028897;28;20193;-88
2020/12/09 12:21:30;;;;;;;51.83;30.35;;;5.00;99.90;;;;;;5038068;28;20212;-90
2020/12/09 12:23:59;;;;;;;57.58;33.15;;;5.10;99.90;;;;;;5020278;28;20309;-88
2020/12/09 12:26:25;;;;;;;50.42;32.00;;;5.10;99.90;;;;;;5037523;28;20185;-91
2020/12/09 12:28:53;;;;;;;50.30;31.92;;;5.10;99.90;;;;;;5037465;28;20663;-92
2020/12/09 12:31:22;;;;;;;58.30;32.47;;;5.10;99.90;;;;;;5035585;28;20634;-90
2020/12/09 12:33:48;;;;;;;58.70;34.47;;;5.10;99.90;;;;;;5030945;28;20207;-90
2020/12/09 12:36:14;;;;;;;57.78;32.65;;;5.10;99.90;;;;;;5028548;28;20250;-89
2020/12/09 12:38:41;;;;;;;60.33;32.70;;;5.20;99.90;;;;;;5036726;28;20251;-88
2020/12/09 12:41:08;;;;;;;58.22;33.63;;;5.20;99.90;;;;;;5051864;28;20374;-88
2020/12/09 12:43:34;;;;;;;54.70;33.67;;;5.30;99.90;;;;;;5020673;28;20250;-93
2020/12/09 12:46:00;;;;;;;57.23;34.80;;;5.30;99.90;;;;;;5020333;28;20287;-91